Time;durP1;ratioP1;P1;durP2;ratioP2;P2;SDS_P1;SDS_P2;PMS_P1;PMS_P2;Temp;Humidity;BMP_temperature;BMP_pressure;BME280_temperature;BME280_humidity;BME280_pressure;Samples;Min_cycle;Max_cycle;Signal;HPM_P1;HPM_P2
2022/06/17 09:08:37;;;;;;;12.18;11.10;;;35.20;87.80;;;;;;6255258;22;19939;-90
2022/06/17 09:11:41;;;;;;;10.80;10.27;;;35.70;86.90;;;;;;6224561;22;20012;-89
2022/06/17 09:14:24;;;;;;;11.77;10.68;;;36.30;86.60;;;;;;6250689;22;20452;-90
2022/06/17 09:16:56;;;;;;;12.43;11.52;;;36.20;86.20;;;;;;6199885;23;20008;-91
2022/06/17 09:19:29;;;;;;;11.68;10.77;;;35.80;85.40;;;;;;6195432;23;20103;-91
2022/06/17 09:22:20;;;;;;;11.82;10.70;;;35.70;86.00;;;;;;6219946;23;20008;-90
2022/06/17 09:24:47;;;;;;;13.80;12.48;;;36.10;85.80;;;;;;6194254;23;20020;-91
2022/06/17 09:27:24;;;;;;;11.60;10.80;;;35.90;84.90;;;;;;6198880;23;20063;-90
2022/06/17 09:30:02;;;;;;;11.20;10.30;;;35.20;87.20;;;;;;6220281;23;20011;-89
2022/06/17 09:33:00;;;;;;;10.55;9.85;;;33.70;89.80;;;;;;6194997;23;20044;-90
2022/06/17 09:35:37;;;;;;;11.05;10.30;;;33.40;90.70;;;;;;6204623;23;20011;-90
2022/06/17 09:38:31;;;;;;;10.73;10.02;;;33.60;90.80;;;;;;6195004;23;20019;-90
2022/06/17 09:41:20;;;;;;;;;;;32.70;91.00;;;;;;6195066;23;20078;-90
2022/06/17 09:44:11;;;;;;;9.85;9.18;;;32.30;91.10;;;;;;6194977;23;19907;-89
2022/06/17 09:46:54;;;;;;;10.90;9.85;;;31.90;91.70;;;;;;6195195;23;20005;-89
2022/06/17 09:49:27;;;;;;;11.10;10.10;;;32.50;91.80;;;;;;6194886;23;20043;-90
2022/06/17 09:52:09;;;;;;;11.05;10.20;;;32.50;91.60;;;;;;6220168;23;20077;-91
2022/06/17 09:54:53;;;;;;;10.40;9.80;;;33.10;91.10;;;;;;6194837;23;20425;-90
2022/06/17 09:57:29;;;;;;;10.45;9.75;;;32.90;91.80;;;;;;6197240;23;20065;-90
2022/06/17 10:00:07;;;;;;;10.40;9.82;;;32.90;91.50;;;;;;6196727;23;20020;-90
2022/06/17 10:02:48;;;;;;;10.40;9.70;;;32.30;91.70;;;;;;6197043;23;20087;-91
2022/06/17 10:05:37;;;;;;;11.27;10.57;;;32.10;92.90;;;;;;6197065;23;20034;-90
2022/06/17 10:08:28;;;;;;;10.30;9.80;;;32.20;92.10;;;;;;6191640;23;20092;-91
2022/06/17 10:11:18;;;;;;;11.07;10.48;;;32.60;92.10;;;;;;6191401;23;20334;-90
2022/06/17 10:13:57;;;;;;;11.23;10.52;;;32.90;92.60;;;;;;6191376;23;20013;-90
2022/06/17 10:19:57;;;;;;;10.50;9.80;;;32.20;93.60;;;;;;6218616;23;20013;-91
2022/06/17 10:22:43;;;;;;;10.70;10.13;;;32.20;93.40;;;;;;6193083;23;20015;-91
2022/06/17 10:25:38;;;;;;;11.43;10.50;;;32.00;93.40;;;;;;6193497;23;20346;-90
2022/06/17 10:28:33;;;;;;;10.77;10.13;;;32.20;93.80;;;;;;6194358;23;20015;-90
2022/06/17 10:31:26;;;;;;;11.18;10.02;;;32.40;92.80;;;;;;6218572;23;20450;-92
2022/06/17 10:33:56;;;;;;;11.10;10.40;;;32.30;93.40;;;;;;6175922;23;20008;-90
2022/06/17 10:36:22;;;;;;;10.27;9.68;;;32.00;93.20;;;;;;6193820;23;20012;-89
2022/06/17 10:38:50;;;;;;;10.45;9.88;;;32.00;93.70;;;;;;6193386;23;20013;-89
2022/06/17 10:41:18;;;;;;;11.93;10.05;;;31.50;94.00;;;;;;6193402;23;20012;-90
2022/06/17 10:43:48;;;;;;;10.40;9.70;;;31.40;94.20;;;;;;6192529;23;20012;-90
2022/06/17 10:46:44;;;;;;;10.50;9.77;;;31.40;94.20;;;;;;6199980;23;20059;-90
2022/06/17 10:49:21;;;;;;;10.50;9.90;;;31.30;93.80;;;;;;6172326;23;20039;-92
2022/06/17 10:51:52;;;;;;;11.05;10.35;;;31.40;94.20;;;;;;6194475;23;20083;-90
2022/06/17 10:54:44;;;;;;;10.55;9.95;;;30.90;93.20;;;;;;6217611;23;20092;-89
2022/06/17 10:57:28;;;;;;;11.45;10.40;;;31.20;93.90;;;;;;6213214;23;20037;-89
2022/06/17 10:59:56;;;;;;;10.30;9.75;;;31.30;93.70;;;;;;6217099;23;20025;-90
2022/06/17 11:02:25;;;;;;;10.50;9.70;;;31.30;93.90;;;;;;6192842;23;20001;-90
2022/06/17 11:04:54;;;;;;;10.63;9.70;;;31.60;93.40;;;;;;6192697;23;20009;-89
2022/06/17 11:07:50;;;;;;;10.32;9.80;;;31.80;92.80;;;;;;6191827;23;20461;-89
2022/06/17 11:10:22;;;;;;;10.63;9.95;;;31.70;94.00;;;;;;6217373;23;20012;-89
2022/06/17 11:13:15;;;;;;;11.00;10.18;;;31.50;95.50;;;;;;6225827;23;20008;-90
2022/06/17 11:16:00;;;;;;;10.43;9.82;;;31.30;95.70;;;;;;6195050;23;20015;-91
2022/06/17 11:18:31;;;;;;;10.30;9.70;;;31.50;97.10;;;;;;6196284;23;20009;-91
2022/06/17 11:21:08;;;;;;;10.07;9.45;;;31.30;96.90;;;;;;6193393;23;20013;-89
2022/06/17 11:23:44;;;;;;;10.15;9.60;;;31.50;98.40;;;;;;6191952;23;20011;-90
2022/06/17 11:26:22;;;;;;;13.55;9.50;;;31.70;97.90;;;;;;6192892;23;20016;-90
2022/06/17 11:28:55;;;;;;;10.07;9.48;;;31.40;98.40;;;;;;6189855;23;20063;-90
2022/06/17 11:31:24;;;;;;;9.97;9.40;;;31.20;99.50;;;;;;6191966;23;20009;-90
2022/06/17 11:33:54;;;;;;;9.75;9.25;;;31.30;99.00;;;;;;6194615;23;20012;-90
2022/06/17 11:36:49;;;;;;;9.23;8.80;;;31.40;99.00;;;;;;6194667;23;20036;-90
2022/06/17 11:39:31;;;;;;;10.10;9.38;;;31.70;98.90;;;;;;6199726;23;20072;-89
2022/06/17 11:42:00;;;;;;;9.88;9.20;;;31.50;98.00;;;;;;6196000;23;20013;-90
2022/06/17 11:44:27;;;;;;;10.07;9.50;;;31.40;98.10;;;;;;6194846;23;20001;-90
2022/06/17 11:47:01;;;;;;;10.07;9.48;;;31.70;97.70;;;;;;6195617;23;20063;-89
2022/06/17 11:49:34;;;;;;;10.38;9.77;;;31.30;96.90;;;;;;6192804;23;20032;-89
2022/06/17 11:52:06;;;;;;;10.23;9.68;;;31.50;96.50;;;;;;6192818;23;20004;-90
2022/06/17 11:54:48;;;;;;;9.98;9.48;;;31.50;97.10;;;;;;6193282;23;20012;-90
2022/06/17 11:57:25;;;;;;;10.48;9.80;;;31.30;97.10;;;;;;6192037;23;20015;-89
2022/06/17 11:59:58;;;;;;;9.95;9.45;;;31.30;96.20;;;;;;6191762;23;20016;-90
2022/06/17 12:02:26;;;;;;;10.45;9.75;;;31.40;95.50;;;;;;6192054;23;20005;-90
2022/06/17 12:05:06;;;;;;;10.48;9.80;;;31.50;95.80;;;;;;6191623;23;20009;-91
2022/06/17 12:08:07;;;;;;;10.23;9.68;;;31.50;95.70;;;;;;6191193;23;20017;-90
2022/06/17 12:10:39;;;;;;;11.35;10.75;;;31.30;95.00;;;;;;6191823;23;20032;-89
2022/06/17 12:13:15;;;;;;;10.45;9.85;;;31.80;95.00;;;;;;6191283;23;20008;-90
2022/06/17 12:15:45;;;;;;;10.45;9.75;;;32.10;94.60;;;;;;6191789;23;20004;-90
2022/06/17 12:18:23;;;;;;;10.25;9.70;;;31.40;94.10;;;;;;6191694;23;20012;-90
2022/06/17 12:21:14;;;;;;;10.00;9.50;;;31.40;93.90;;;;;;6193472;23;20085;-90
2022/06/17 12:23:43;;;;;;;9.85;9.35;;;31.00;94.30;;;;;;6193619;23;20015;-91
2022/06/17 12:26:44;;;;;;;10.07;9.43;;;31.20;93.80;;;;;;6192237;23;20007;-91
2022/06/17 12:29:19;;;;;;;10.25;9.55;;;31.60;94.10;;;;;;6193329;23;20014;-90
2022/06/17 12:31:58;;;;;;;9.82;9.23;;;31.30;93.70;;;;;;6192766;23;20032;-90
2022/06/17 12:34:37;;;;;;;9.25;8.75;;;31.20;94.70;;;;;;6192026;23;20012;-89
2022/06/17 12:37:24;;;;;;;10.25;9.63;;;31.20;94.50;;;;;;6193407;23;20009;-90
2022/06/17 12:40:28;;;;;;;9.90;9.40;;;31.20;94.50;;;;;;6192373;23;20016;-90
2022/06/17 12:43:06;;;;;;;11.00;10.40;;;31.10;94.70;;;;;;6157579;23;20019;-90
2022/06/17 12:45:36;;;;;;;10.75;10.05;;;31.20;94.90;;;;;;6191568;23;20013;-90
2022/06/17 12:48:22;;;;;;;10.38;9.57;;;31.40;95.00;;;;;;6216670;23;20091;-89
2022/06/17 12:53:58;;;;;;;9.90;9.20;;;31.20;94.00;;;;;;6216123;23;20024;-89
2022/06/17 12:56:35;;;;;;;10.10;9.60;;;31.20;95.10;;;;;;6191298;23;20008;-90
2022/06/17 12:59:17;;;;;;;10.27;9.65;;;31.50;95.20;;;;;;6195630;23;20015;-90
2022/06/17 13:02:12;;;;;;;9.98;9.48;;;31.70;94.00;;;;;;6191241;23;20316;-91
2022/06/17 13:05:15;;;;;;;10.00;9.50;;;31.40;94.20;;;;;;6198963;23;20017;-89
2022/06/17 13:08:12;;;;;;;10.00;9.40;;;31.40;94.10;;;;;;6207253;23;20024;-91
2022/06/17 13:11:16;;;;;;;9.65;9.25;;;31.10;93.90;;;;;;6151390;23;20008;-90
2022/06/17 13:14:07;;;;;;;9.80;9.10;;;30.80;94.50;;;;;;6191103;23;20031;-91
2022/06/17 13:16:51;;;;;;;10.00;9.40;;;31.20;94.60;;;;;;6191573;23;20012;-90
2022/06/17 13:19:27;;;;;;;9.77;9.18;;;31.20;94.60;;;;;;6191300;23;20442;-90
2022/06/17 13:22:26;;;;;;;9.32;8.82;;;31.10;94.60;;;;;;6191541;23;20062;-90
2022/06/17 13:25:10;;;;;;;9.80;9.10;;;31.30;94.00;;;;;;6203474;23;20012;-91
2022/06/17 13:28:00;;;;;;;9.82;9.13;;;31.80;93.80;;;;;;6190989;23;20074;-89
2022/06/17 13:30:32;;;;;;;9.85;9.32;;;31.60;93.90;;;;;;6190457;23;20037;-89
2022/06/17 13:33:06;;;;;;;10.48;9.77;;;31.50;93.80;;;;;;6190623;23;20008;-90
2022/06/17 13:35:43;;;;;;;9.93;9.43;;;31.70;94.60;;;;;;6191216;23;20008;-89
2022/06/17 13:38:27;;;;;;;9.82;9.32;;;32.00;94.00;;;;;;6190912;23;20039;-90
2022/06/17 13:41:09;;;;;;;9.90;9.25;;;32.00;93.90;;;;;;6190718;23;20021;-90
2022/06/17 13:43:46;;;;;;;9.93;9.43;;;32.00;93.80;;;;;;6190853;23;20033;-90
2022/06/17 13:46:15;;;;;;;10.02;9.32;;;31.90;94.40;;;;;;6189391;23;20104;-90
2022/06/17 13:48:55;;;;;;;10.02;9.20;;;31.20;95.20;;;;;;6191140;23;20131;-92
2022/06/17 13:51:34;;;;;;;10.40;9.57;;;31.30;95.40;;;;;;6191457;23;20009;-91
2022/06/17 13:54:36;;;;;;;10.30;9.60;;;31.40;94.90;;;;;;6190083;23;20009;-90
2022/06/17 13:57:03;;;;;;;9.88;9.25;;;31.70;95.10;;;;;;6190750;23;20067;-90
2022/06/17 13:59:37;;;;;;;9.63;9.13;;;31.70;95.10;;;;;;6190519;23;20012;-90
2022/06/17 14:02:23;;;;;;;10.43;9.70;;;31.80;95.30;;;;;;6190788;23;20008;-90
2022/06/17 14:04:59;;;;;;;11.10;9.98;;;31.70;94.90;;;;;;6191530;23;20016;-90
2022/06/17 14:07:55;;;;;;;10.05;9.40;;;31.50;94.80;;;;;;6190386;23;20100;-91
2022/06/17 14:10:46;;;;;;;10.07;9.48;;;31.30;95.90;;;;;;6212512;23;20040;-91
2022/06/17 14:13:18;;;;;;;10.25;9.55;;;31.10;95.80;;;;;;6190797;23;20059;-92
2022/06/17 14:15:58;;;;;;;10.25;9.65;;;31.20;96.20;;;;;;6189890;23;20446;-91
2022/06/17 14:18:45;;;;;;;10.05;9.45;;;31.20;95.50;;;;;;6203363;22;20013;-93
2022/06/17 14:21:20;;;;;;;10.65;10.00;;;31.50;96.50;;;;;;6225364;22;20508;-92
2022/06/17 14:23:50;;;;;;;10.40;9.90;;;31.50;95.50;;;;;;6250994;22;20392;-92
2022/06/17 14:26:40;;;;;;;10.07;9.57;;;31.20;95.90;;;;;;6220397;23;20012;-93
2022/06/17 14:29:18;;;;;;;10.30;9.80;;;31.20;95.90;;;;;;6191071;23;20004;-92
2022/06/17 14:32:09;;;;;;;10.93;10.18;;;31.00;96.00;;;;;;6190432;23;20087;-92
2022/06/17 14:34:47;;;;;;;10.35;9.75;;;31.30;95.30;;;;;;6142184;23;20009;-92
2022/06/17 14:37:36;;;;;;;10.20;9.60;;;31.50;94.70;;;;;;6195473;23;20004;-92
2022/06/17 14:40:18;;;;;;;10.20;9.60;;;31.60;95.50;;;;;;6195717;23;20484;-92
2022/06/17 14:43:04;;;;;;;10.43;9.73;;;31.70;94.90;;;;;;6196082;23;20008;-92
2022/06/17 14:45:37;;;;;;;10.48;9.88;;;31.60;95.80;;;;;;6197360;23;20022;-92
2022/06/17 14:48:13;;;;;;;10.93;10.10;;;31.40;95.50;;;;;;6199674;23;20004;-91
2022/06/17 14:50:39;;;;;;;10.95;10.18;;;31.60;95.50;;;;;;6198332;23;20010;-92
2022/06/17 14:53:11;;;;;;;10.13;9.52;;;31.60;95.20;;;;;;6197471;23;20008;-92
2022/06/17 14:56:00;;;;;;;9.57;9.07;;;31.70;95.60;;;;;;6191801;23;20005;-92
2022/06/17 14:58:56;;;;;;;10.32;9.35;;;31.70;95.30;;;;;;6222354;23;20031;-92
2022/06/17 15:01:29;;;;;;;9.85;9.30;;;31.60;95.20;;;;;;6204790;23;20016;-92
2022/06/17 15:04:19;;;;;;;10.80;9.80;;;31.40;95.20;;;;;;6188688;23;20493;-92
2022/06/17 15:06:47;;;;;;;10.48;9.90;;;31.70;94.60;;;;;;6207156;23;20004;-92
2022/06/17 15:09:32;;;;;;;10.63;9.98;;;31.80;94.10;;;;;;6196897;23;20008;-92
2022/06/17 15:12:18;;;;;;;11.23;10.50;;;31.70;94.30;;;;;;6196684;23;20012;-93
2022/06/17 15:14:51;;;;;;;10.32;9.73;;;31.80;94.70;;;;;;6196584;23;20008;-92
2022/06/17 15:17:41;;;;;;;10.10;9.50;;;31.70;95.50;;;;;;6196394;23;20007;-93
2022/06/17 15:20:18;;;;;;;9.85;9.15;;;31.50;95.60;;;;;;6195617;23;20020;-94
2022/06/17 15:22:57;;;;;;;9.48;8.80;;;31.70;96.10;;;;;;6221433;23;20091;-93
2022/06/17 15:25:52;;;;;;;9.85;9.30;;;31.50;95.60;;;;;;6196124;23;20012;-92
2022/06/17 15:29:18;;;;;;;12.63;9.50;;;31.80;95.50;;;;;;6199460;23;20012;-91
2022/06/17 15:32:16;;;;;;;9.63;9.02;;;31.80;95.30;;;;;;6239963;23;20027;-91
2022/06/17 15:34:47;;;;;;;10.23;9.68;;;31.50;95.50;;;;;;6201074;23;20027;-92
2022/06/17 15:37:33;;;;;;;10.18;9.68;;;31.30;95.70;;;;;;6221216;23;20008;-93
2022/06/17 15:40:20;;;;;;;10.50;9.70;;;31.20;95.60;;;;;;6196484;23;20162;-93
2022/06/17 15:43:14;;;;;;;10.02;9.20;;;31.30;96.00;;;;;;6226630;23;20012;-92
2022/06/17 15:45:43;;;;;;;9.77;9.10;;;31.50;95.50;;;;;;6200884;23;20028;-93
2022/06/17 15:48:25;;;;;;;10.15;9.45;;;31.30;96.10;;;;;;6198539;23;20247;-93
2022/06/17 15:50:59;;;;;;;10.20;9.60;;;31.30;95.20;;;;;;6198485;23;20013;-93
2022/06/17 15:53:35;;;;;;;;;;;31.40;95.20;;;;;;6202425;23;20004;-92
2022/06/17 15:56:13;;;;;;;10.00;9.30;;;31.30;95.20;;;;;;6201525;23;19962;-94
2022/06/17 15:58:42;;;;;;;9.68;9.00;;;31.30;95.60;;;;;;6197486;23;20012;-95
2022/06/17 16:01:30;;;;;;;9.82;9.23;;;31.20;95.10;;;;;;6222915;23;20442;-93
2022/06/17 16:04:00;;;;;;;9.80;9.10;;;31.20;95.20;;;;;;6221811;23;20012;-93
2022/06/17 16:06:35;;;;;;;10.05;9.10;;;31.50;95.10;;;;;;6222754;23;20532;-93
2022/06/17 16:09:24;;;;;;;12.00;10.93;;;31.60;95.50;;;;;;6197497;23;20282;-94
2022/06/17 16:11:51;;;;;;;12.20;11.30;;;31.80;96.20;;;;;;6200945;23;20062;-93
2022/06/17 16:14:34;;;;;;;12.18;11.27;;;32.00;96.10;;;;;;6198945;23;20000;-93
2022/06/17 16:17:12;;;;;;;10.13;9.63;;;32.20;95.80;;;;;;6198072;23;20012;-93
2022/06/17 16:19:55;;;;;;;10.57;9.90;;;32.20;95.90;;;;;;6222731;23;20012;-92
2022/06/17 16:22:26;;;;;;;10.30;9.75;;;32.20;95.40;;;;;;6222163;23;20013;-93
2022/06/17 16:24:52;;;;;;;10.20;9.57;;;32.20;95.00;;;;;;6198383;23;20015;-92
2022/06/17 16:27:29;;;;;;;10.77;10.00;;;32.10;94.60;;;;;;6197622;23;20014;-93
2022/06/17 16:30:11;;;;;;;11.05;10.30;;;32.00;94.30;;;;;;6198609;23;20012;-91
2022/06/17 16:32:38;;;;;;;11.00;10.20;;;31.80;94.20;;;;;;6195857;23;20058;-92
2022/06/17 16:35:20;;;;;;;10.20;9.50;;;31.50;94.60;;;;;;6196091;23;20008;-92
2022/06/17 16:37:52;;;;;;;10.45;9.50;;;31.30;95.40;;;;;;6195706;23;20008;-91
2022/06/17 16:46:16;;;;;;;7.97;7.47;;;30.30;99.90;;;;;;6223782;23;20008;-92
2022/06/17 16:48:43;;;;;;;7.72;7.20;;;30.00;99.90;;;;;;6196238;23;20084;-90
2022/06/17 16:51:11;;;;;;;12.88;4.55;;;29.80;99.90;;;;;;6195894;23;20008;-90
2022/06/17 16:53:40;;;;;;;4.95;4.00;;;29.50;99.90;;;;;;6195999;23;20004;-90
2022/06/17 16:56:15;;;;;;;4.45;3.95;;;29.30;99.90;;;;;;6220768;23;20439;-91
2022/06/17 16:58:41;;;;;;;4.30;3.90;;;29.20;99.90;;;;;;6195731;23;20369;-90
2022/06/17 17:01:10;;;;;;;4.60;4.05;;;29.00;99.90;;;;;;6196238;23;20008;-90
2022/06/17 17:03:36;;;;;;;5.63;4.18;;;28.90;99.90;;;;;;6220885;23;20004;-91
2022/06/17 17:06:02;;;;;;;7.82;4.07;;;28.80;99.90;;;;;;6195437;23;20039;-91
2022/06/17 17:08:29;;;;;;;4.93;3.40;;;28.70;99.90;;;;;;6195995;23;20039;-91
2022/06/17 17:10:55;;;;;;;5.75;3.38;;;28.60;99.90;;;;;;6195593;23;20008;-90
2022/06/17 17:13:21;;;;;;;4.65;3.30;;;28.50;99.90;;;;;;6195885;23;20090;-91
2022/06/17 17:15:48;;;;;;;6.10;3.85;;;28.50;99.90;;;;;;6196543;23;20444;-89
2022/06/17 17:18:15;;;;;;;8.52;3.90;;;28.40;99.90;;;;;;6196987;23;20004;-90
2022/06/17 17:20:51;;;;;;;6.60;3.80;;;28.30;99.90;;;;;;6197276;23;20046;-90
2022/06/17 17:23:22;;;;;;;5.53;3.70;;;28.20;99.90;;;;;;6220606;23;20287;-91
2022/06/17 17:25:52;;;;;;;6.80;4.07;;;28.10;99.90;;;;;;6196308;23;20069;-90
2022/06/17 17:28:22;;;;;;;8.13;4.50;;;28.00;99.90;;;;;;6195727;23;20015;-90
2022/06/17 17:30:51;;;;;;;4.55;4.15;;;28.00;99.90;;;;;;6195705;23;20422;-90
2022/06/17 17:33:19;;;;;;;6.65;4.15;;;27.90;99.90;;;;;;6183260;23;20103;-90
2022/06/17 17:35:45;;;;;;;5.35;3.88;;;27.90;99.90;;;;;;6195708;23;20503;-90
2022/06/17 17:38:13;;;;;;;6.78;4.00;;;27.90;99.90;;;;;;6195688;23;20004;-89
2022/06/17 17:40:40;;;;;;;5.25;4.25;;;27.90;99.90;;;;;;6198005;23;20016;-89
2022/06/17 17:43:06;;;;;;;6.65;4.28;;;28.00;99.90;;;;;;6195479;23;20014;-91
2022/06/17 17:45:39;;;;;;;7.50;4.30;;;27.90;99.90;;;;;;6195301;23;20489;-90
2022/06/17 17:48:07;;;;;;;6.95;4.47;;;27.90;99.90;;;;;;6195638;23;20027;-89
2022/06/17 17:50:34;;;;;;;6.45;4.25;;;27.90;99.90;;;;;;6195802;23;20147;-89
2022/06/17 17:53:01;;;;;;;8.00;4.50;;;27.90;99.90;;;;;;6195673;23;20016;-88
2022/06/17 17:55:28;;;;;;;9.57;4.53;;;27.90;99.90;;;;;;6195595;23;20001;-89
2022/06/17 17:57:55;;;;;;;9.38;4.50;;;27.90;99.90;;;;;;6195899;23;20012;-90
2022/06/17 18:00:29;;;;;;;7.75;4.40;;;27.90;99.90;;;;;;6195454;23;20016;-89
2022/06/17 18:02:56;;;;;;;6.28;4.30;;;27.80;99.90;;;;;;6196043;23;20008;-90
2022/06/17 18:05:24;;;;;;;5.22;3.80;;;27.90;99.90;;;;;;6197112;23;20039;-89
2022/06/17 18:07:51;;;;;;;10.00;3.85;;;27.90;99.90;;;;;;6215508;22;20012;-89
2022/06/17 18:10:19;;;;;;;6.32;4.22;;;27.80;99.90;;;;;;6219989;23;20008;-89
2022/06/17 18:12:53;;;;;;;8.45;4.70;;;27.80;99.90;;;;;;6203618;23;20008;-90
2022/06/17 18:15:22;;;;;;;9.38;4.70;;;27.80;99.90;;;;;;6195558;23;20008;-89
2022/06/17 18:17:48;;;;;;;7.07;3.90;;;27.70;99.90;;;;;;6196904;23;20000;-88
2022/06/17 18:20:19;;;;;;;5.68;3.85;;;27.70;99.90;;;;;;6197170;23;20019;-90
2022/06/17 18:22:46;;;;;;;8.93;4.15;;;27.60;99.90;;;;;;6197332;23;20434;-90
2022/06/17 18:25:14;;;;;;;5.97;3.67;;;27.20;99.90;;;;;;6197392;23;20004;-90
2022/06/17 18:27:41;;;;;;;4.78;3.50;;;27.00;99.90;;;;;;6197256;23;20012;-89
2022/06/17 18:30:10;;;;;;;4.50;3.53;;;27.00;99.90;;;;;;6197107;23;20012;-90
2022/06/17 18:32:43;;;;;;;5.63;3.00;;;26.80;99.90;;;;;;6197517;23;20061;-90
2022/06/17 18:35:20;;;;;;;8.20;3.67;;;26.70;99.90;;;;;;6197433;23;20551;-90
2022/06/17 18:37:47;;;;;;;2.83;2.63;;;26.60;99.90;;;;;;6192311;23;20004;-89
2022/06/17 18:40:17;;;;;;;5.32;3.03;;;26.50;99.90;;;;;;6195695;23;20015;-90
2022/06/17 18:42:45;;;;;;;5.60;3.10;;;26.50;99.90;;;;;;6197465;23;20337;-89
2022/06/17 18:45:14;;;;;;;3.15;2.85;;;26.30;99.90;;;;;;6197289;23;20035;-91
2022/06/17 18:47:41;;;;;;;3.63;3.30;;;26.30;99.90;;;;;;6197369;23;20058;-90
2022/06/17 18:50:34;;;;;;;11.02;3.88;;;26.20;99.90;;;;;;6198466;23;20004;-89
2022/06/17 18:53:03;;;;;;;6.57;4.20;;;26.10;99.90;;;;;;6198088;23;20008;-90
2022/06/17 18:55:30;;;;;;;6.97;4.10;;;26.00;99.90;;;;;;6197414;23;20126;-91
2022/06/17 18:57:59;;;;;;;4.85;4.00;;;26.00;99.90;;;;;;6197283;23;20012;-90
2022/06/17 19:00:28;;;;;;;4.22;3.80;;;25.80;99.90;;;;;;6196660;23;20020;-92
2022/06/17 19:02:58;;;;;;;10.25;3.38;;;25.70;99.90;;;;;;6196739;23;20001;-91
2022/06/17 19:05:37;;;;;;;3.72;2.95;;;25.60;99.90;;;;;;6196707;23;20077;-91
2022/06/17 19:19:14;;;;;;;3.30;2.38;;;25.20;99.90;;;;;;6221734;23;20357;-91
2022/06/17 19:21:41;;;;;;;3.13;2.65;;;25.20;99.90;;;;;;6197074;23;20073;-91
2022/06/17 19:24:09;;;;;;;3.33;2.42;;;25.00;99.90;;;;;;6196881;23;20008;-92
2022/06/17 19:26:36;;;;;;;7.20;2.60;;;25.00;99.90;;;;;;6197031;23;20014;-91
2022/06/17 19:29:02;;;;;;;3.35;2.58;;;24.90;99.90;;;;;;6197227;23;20068;-90
2022/06/17 19:31:32;;;;;;;3.63;2.60;;;24.90;99.90;;;;;;6197179;23;20024;-91
2022/06/17 19:33:59;;;;;;;4.85;2.50;;;24.90;99.90;;;;;;6196945;23;20043;-91
2022/06/17 19:36:28;;;;;;;4.38;3.03;;;24.80;99.90;;;;;;6197035;23;20315;-90
2022/06/17 19:38:55;;;;;;;4.18;3.10;;;24.80;99.90;;;;;;6197309;23;20012;-90
2022/06/17 19:44:10;;;;;;;3.10;2.80;;;24.60;99.90;;;;;;6222505;23;20015;-91
2022/06/17 19:46:44;;;;;;;4.70;3.05;;;24.60;99.90;;;;;;6196808;23;20090;-91
2022/06/17 19:49:44;;;;;;;4.03;3.00;;;24.50;99.90;;;;;;6197088;23;20008;-90
2022/06/17 19:52:35;;;;;;;4.05;3.28;;;24.60;99.90;;;;;;6074599;23;20014;-91
2022/06/17 19:55:11;;;;;;;4.90;3.50;;;24.60;99.90;;;;;;6074608;23;20010;-90
2022/06/17 19:57:38;;;;;;;6.50;3.47;;;24.50;99.90;;;;;;6049477;23;20010;-91
2022/06/17 20:00:05;;;;;;;3.70;3.17;;;24.50;99.90;;;;;;6073116;23;20078;-90
2022/06/17 20:02:40;;;;;;;3.83;3.43;;;24.50;99.90;;;;;;6075213;23;20098;-90
2022/06/17 20:05:25;;;;;;;5.40;3.28;;;24.40;99.90;;;;;;6049136;23;20049;-91
2022/06/17 20:07:54;;;;;;;5.28;3.72;;;24.30;99.90;;;;;;6075950;23;20069;-91
2022/06/17 20:10:25;;;;;;;7.35;4.13;;;24.30;99.90;;;;;;6051067;23;20048;-90
2022/06/17 20:12:53;;;;;;;3.97;3.50;;;24.30;99.90;;;;;;6077269;23;19990;-92
2022/06/17 20:15:22;;;;;;;4.57;3.75;;;24.30;99.90;;;;;;6068544;23;20018;-91
2022/06/17 20:17:53;;;;;;;9.30;3.75;;;24.30;99.90;;;;;;6050028;23;20017;-90
2022/06/17 20:20:21;;;;;;;6.85;4.00;;;24.30;99.90;;;;;;6072719;23;20026;-90
2022/06/17 20:22:47;;;;;;;5.60;3.60;;;24.30;99.90;;;;;;6049270;23;20377;-91
2022/06/17 20:25:14;;;;;;;5.35;3.80;;;24.30;99.90;;;;;;6073197;23;20336;-90
2022/06/17 20:27:41;;;;;;;7.10;3.42;;;24.30;99.90;;;;;;6122806;23;20075;-90
2022/06/17 20:30:15;;;;;;;4.25;3.40;;;24.20;99.90;;;;;;6194033;23;20008;-90
2022/06/17 20:32:43;;;;;;;3.35;2.90;;;24.20;99.90;;;;;;6196071;23;20083;-90
2022/06/17 20:35:33;;;;;;;3.92;3.13;;;24.20;99.90;;;;;;6196294;23;20012;-89
2022/06/17 20:38:06;;;;;;;3.85;2.90;;;24.30;99.90;;;;;;6209571;22;20020;-89
2022/06/17 20:40:39;;;;;;;4.07;3.15;;;24.40;99.90;;;;;;6200646;23;20035;-90
2022/06/17 20:43:10;;;;;;;8.77;3.60;;;24.30;99.90;;;;;;6200715;23;20070;-91
2022/06/17 20:51:34;;;;;;;5.53;3.47;;;24.20;99.90;;;;;;6164602;23;20016;-90
2022/06/17 20:54:02;;;;;;;4.07;3.60;;;24.30;99.90;;;;;;6166698;23;20036;-90
2022/06/17 20:56:32;;;;;;;5.18;3.58;;;24.30;99.90;;;;;;6163684;23;20439;-90
2022/06/17 20:58:58;;;;;;;4.25;3.20;;;24.20;99.90;;;;;;6211338;23;20031;-90
2022/06/17 21:01:26;;;;;;;5.60;4.22;;;24.20;99.90;;;;;;6200539;23;20186;-90
2022/06/17 21:03:53;;;;;;;4.80;3.80;;;24.20;99.90;;;;;;6199653;23;20469;-91
2022/06/17 21:06:28;;;;;;;6.18;3.85;;;24.10;99.90;;;;;;6194241;23;20005;-90
2022/06/17 21:08:55;;;;;;;4.22;3.80;;;24.00;99.90;;;;;;6195500;23;20418;-92
2022/06/17 21:11:22;;;;;;;3.85;3.53;;;24.10;99.90;;;;;;6169381;23;20422;-91
2022/06/17 21:13:49;;;;;;;5.40;3.60;;;24.00;99.90;;;;;;6196229;23;20407;-92
2022/06/17 21:16:20;;;;;;;4.00;3.60;;;24.10;99.90;;;;;;6196547;23;20516;-92
2022/06/17 21:18:48;;;;;;;6.40;3.97;;;24.00;99.90;;;;;;6195915;23;20073;-91
2022/06/17 21:21:19;;;;;;;4.93;3.53;;;24.00;99.90;;;;;;6189802;23;20036;-89
2022/06/17 21:23:48;;;;;;;5.03;3.50;;;24.00;99.90;;;;;;6165523;23;20008;-90
2022/06/17 21:26:22;;;;;;;7.22;3.78;;;24.00;99.90;;;;;;6164045;23;20462;-91
2022/06/17 21:28:51;;;;;;;8.32;3.83;;;24.00;99.90;;;;;;6189866;23;20371;-91
2022/06/17 21:31:18;;;;;;;5.22;4.30;;;24.00;99.90;;;;;;6165305;23;20088;-90
2022/06/17 21:33:46;;;;;;;8.80;5.30;;;23.90;99.90;;;;;;6164468;23;20357;-92
2022/06/17 21:36:19;;;;;;;7.53;4.85;;;23.90;99.90;;;;;;6187730;23;20017;-91
2022/06/17 21:38:57;;;;;;;5.38;4.90;;;23.90;99.90;;;;;;6191722;23;20091;-92
2022/06/17 21:41:24;;;;;;;7.57;4.90;;;23.90;99.90;;;;;;6143084;23;20041;-90
2022/06/17 21:43:51;;;;;;;6.25;5.10;;;23.80;99.90;;;;;;6080436;23;20022;-91
2022/06/17 21:46:27;;;;;;;6.32;5.60;;;23.80;99.90;;;;;;6083137;23;20440;-92
2022/06/17 21:48:54;;;;;;;6.18;4.70;;;23.80;99.90;;;;;;6079325;23;20033;-92
2022/06/17 21:51:41;;;;;;;6.05;5.38;;;23.80;99.90;;;;;;6081753;23;20089;-91
2022/06/17 21:54:16;;;;;;;5.72;5.03;;;23.80;99.90;;;;;;6107952;23;20036;-91
2022/06/17 21:56:43;;;;;;;7.45;4.95;;;23.80;99.90;;;;;;6132723;23;20009;-91
2022/06/17 21:59:18;;;;;;;8.02;5.18;;;23.80;99.90;;;;;;6108381;23;20526;-91
2022/06/17 22:01:45;;;;;;;6.72;4.88;;;23.80;99.90;;;;;;6108211;23;20017;-90
2022/06/17 22:04:16;;;;;;;5.20;4.75;;;23.80;99.90;;;;;;6108093;23;20005;-91
2022/06/17 22:06:46;;;;;;;5.78;4.97;;;23.70;99.90;;;;;;6108195;23;20009;-90
2022/06/17 22:09:18;;;;;;;8.23;5.60;;;23.70;99.90;;;;;;6108056;23;20005;-92
2022/06/17 22:12:01;;;;;;;6.22;5.45;;;23.60;99.90;;;;;;6132231;23;20092;-90
2022/06/17 22:14:35;;;;;;;6.50;5.45;;;23.60;99.90;;;;;;6098064;23;20052;-90
2022/06/17 22:17:05;;;;;;;7.15;6.18;;;23.60;99.90;;;;;;6157677;23;19993;-92
2022/06/17 22:19:36;;;;;;;7.70;6.28;;;23.60;99.90;;;;;;6157574;23;20064;-91
2022/06/17 22:22:18;;;;;;;5.82;5.22;;;23.50;99.90;;;;;;6166163;23;20009;-91
2022/06/17 22:24:45;;;;;;;6.68;5.82;;;23.50;99.90;;;;;;6162323;23;20009;-91
2022/06/17 22:27:20;;;;;;;6.70;5.85;;;23.50;99.90;;;;;;6162285;23;20022;-92
2022/06/17 22:29:47;;;;;;;5.78;5.18;;;23.50;99.90;;;;;;6162212;23;20071;-91
2022/06/17 22:32:23;;;;;;;7.30;5.30;;;23.50;99.90;;;;;;6139039;23;20040;-92
2022/06/17 22:34:59;;;;;;;9.70;5.35;;;23.50;99.90;;;;;;6166606;23;20431;-91
2022/06/17 22:37:36;;;;;;;5.80;5.13;;;23.50;99.90;;;;;;6138116;23;20016;-92
2022/06/17 22:40:09;;;;;;;6.32;5.10;;;23.50;99.90;;;;;;6138190;23;20024;-91
2022/06/17 22:42:35;;;;;;;5.13;4.70;;;23.50;99.90;;;;;;6162552;23;20016;-90
2022/06/17 22:45:03;;;;;;;5.43;4.90;;;23.40;99.90;;;;;;6137535;23;20509;-91
2022/06/17 22:47:31;;;;;;;5.68;5.10;;;23.50;99.90;;;;;;6161893;23;20001;-91
2022/06/17 22:50:02;;;;;;;7.72;4.90;;;23.50;99.90;;;;;;6137984;23;20048;-91
2022/06/17 22:52:30;;;;;;;7.50;5.05;;;23.50;99.90;;;;;;6138145;23;20008;-91
2022/06/17 22:54:57;;;;;;;5.88;4.70;;;23.40;99.90;;;;;;6162434;23;20021;-92
2022/06/17 22:57:25;;;;;;;5.50;4.68;;;23.50;99.90;;;;;;6137772;23;20005;-92
2022/06/17 22:59:52;;;;;;;9.57;5.30;;;23.50;99.90;;;;;;6164986;23;20032;-93
2022/06/17 23:02:27;;;;;;;7.53;5.63;;;23.40;99.90;;;;;;6191878;23;20015;-91
2022/06/17 23:05:04;;;;;;;5.93;4.88;;;23.50;99.90;;;;;;6191547;23;20008;-92